Tiptonville, TN

9:18 AM CDT on October 22, 2014 (GMT -0500)
KTNUNION3 | Change Station
CLOSE
Current Station
Personal Weather Station
Location: Union City, TN
Elevation: 360 ft
Nearby Weather Stations

Elev 360 ft 36.41 °N, 89.05 °W | Updated 7 minutes ago

Clear
Clear
50.6 °F
Feels Like 50.6 °F
N
5.0
Wind Variable Wind from NE
Gusts 8.0 mph

Today
High -- | Low -- °F
--% Chance of Precip.
Yesterday
High -- | Low -- °F
Precip. -- in
7:11 AM 6:12 PM
Waning Crescent, 2% visible
Pressure 30.28 in
Visibility 10.0 miles
Clouds Clear
Dew Point 45 °F
Humidity 82%
Rainfall 0.00 in
Snow Depth Not available.
UV 2 out of 12
Pollen 2.00 out of 12
Air Quality Not available.
Flu Activity Sporadic
METAR KDYR 221415Z 05008KT 10SM CLR 11/03 A3028 RMK AO1

More Conditions Fewer Conditions

Pressure 30.28 in
Visibility 10.0 miles
Clouds Clear
Dew Point 45 °F
Humidity 82%
Rainfall 0.00 in
Snow Depth Not available.
UV 2 out of 12
Pollen 2.00 out of 12
Air Quality Not available.
Flu Activity Sporadic
METAR KDYR 221415Z 05008KT 10SM CLR 11/03 A3028 RMK AO1

More Conditions Fewer Conditions

10-Day Weather Forecast

Almanac

Astronomy

Oct. 22, 2014 Rise Set
Actual Time 7:11 AM CDT 6:12 PM CDT
Civil Twilight 6:45 AM CDT 6:38 PM CDT
Nautical Twilight 6:15 AM CDT 7:08 PM CDT
Astronomical Twilight 5:45 AM CDT 7:38 PM CDT
Moon 5:54 AM CDT 5:38 PM CDT
Length of Visible Light 11h 53m
Length of Day
11h 01m
Tomorrow will be 2m 9s shorter.
Waning Crescent, 2% of the Moon is Illuminated
Today
Waning Crescent
Oct 23
New
Oct 30
First Quarter
Nov 6
Full
Nov 14
Last Quarter

Today's Extremes

State Highs State Lows

Community

WunderPhotos

Upload Photos

1,763,927 photos uploaded!

WunderBlogs® & News

Nearby

Snow Depth

Station Depth Elevation
No new snow has been reported.

Earthquake Activity

City Distance Mag. Time & Date
No recent earthquake activity has been reported nearby.
Minimum magnitude displayed is 2.5.

Coastal Water Temperatures

Place Temperature
No Stations Reporting

Nearby Weather Stations